Time;durP1;ratioP1;P1;durP2;ratioP2;P2;SDS_P1;SDS_P2;PMS_P1;PMS_P2;Temp;Humidity;BMP_temperature;BMP_pressure;BME280_temperature;BME280_humidity;BME280_pressure;Samples;Min_cycle;Max_cycle;Signal;HPM_P1;HPM_P2
2023/04/05 00:00:41;;;;;;;7.47;4.13;;;;;;;-141.97;98.32;47828.53;5036550;28;21007;-89
2023/04/05 00:03:08;;;;;;;8.07;3.90;;;;;;;-141.97;98.21;47740.13;5034315;28;20444;-89
2023/04/05 00:05:35;;;;;;;7.70;4.80;;;;;;;-141.97;98.99;47790.09;5034791;28;20940;-89
2023/04/05 00:08:07;;;;;;;7.50;4.97;;;;;;;-141.97;99.11;47768.94;5035150;28;20413;-90
2023/04/05 00:10:32;;;;;;;8.60;5.30;;;;;;;-141.97;99.50;47834.31;5039757;28;20458;-88
2023/04/05 00:12:58;;;;;;;7.60;4.63;;;;;;;-141.97;98.73;47857.38;5046054;28;20401;-88
2023/04/05 00:15:24;;;;;;;7.57;4.50;;;;;;;-141.97;98.54;47770.88;5035400;28;20181;-88
2023/04/05 00:17:50;;;;;;;8.83;4.73;;;;;;;-141.97;98.37;47792.03;5033729;28;20712;-88
2023/04/05 00:20:15;;;;;;;8.70;5.47;;;;;;;-141.97;97.80;47722.81;5034901;28;20408;-88
2023/04/05 00:22:45;;;;;;;7.97;4.97;;;;;;;-141.97;97.93;47738.19;5033505;28;20220;-88
2023/04/05 00:25:11;;;;;;;9.37;5.33;;;;;;;-141.97;98.40;47876.59;5035185;28;20550;-88
2023/04/05 00:27:37;;;;;;;7.83;4.70;;;;;;;-141.97;98.37;47747.81;5034946;28;20443;-88
2023/04/05 00:30:02;;;;;;;9.30;5.63;;;;;;;-141.97;98.06;47676.69;5034763;28;20397;-88
2023/04/05 00:32:28;;;;;;;7.40;4.73;;;;;;;-141.97;98.28;47701.69;5034815;28;20158;-88
2023/04/05 00:34:53;;;;;;;9.43;5.27;;;;;;;-141.97;98.80;47736.28;5034002;28;20229;-87
2023/04/05 00:37:20;;;;;;;11.13;6.20;;;;;;;-141.97;99.12;47730.50;5033409;28;20170;-88
2023/04/05 00:39:46;;;;;;;11.13;5.33;;;;;;;-141.97;99.31;47807.41;5033446;28;20530;-89
2023/04/05 00:42:11;;;;;;;9.57;4.87;;;;;;;-141.97;99.28;47734.34;5034919;28;20459;-90
2023/04/05 00:44:37;;;;;;;9.50;5.53;;;;;;;-141.97;98.84;47853.53;5033861;28;20264;-90
2023/04/05 00:47:08;;;;;;;9.27;5.73;;;;;;;-141.97;98.29;47669.00;5042858;28;20686;-90
2023/04/05 00:49:35;;;;;;;7.83;4.67;;;;;;;-141.97;97.84;47824.69;5037568;28;20194;-88
2023/04/05 00:52:01;;;;;;;7.17;4.80;;;;;;;-141.97;98.17;47799.72;5033357;28;20420;-88
2023/04/05 00:54:30;;;;;;;8.73;5.53;;;;;;;-141.97;98.49;47782.41;5034233;28;20409;-88
2023/04/05 00:56:56;;;;;;;8.43;4.73;;;;;;;-141.97;97.88;47780.47;5034471;28;20401;-89
2023/04/05 00:59:22;;;;;;;7.67;4.33;;;;;;;-141.97;97.95;47776.63;5033690;28;20416;-87
2023/04/05 01:02:27;;;;;;;9.63;5.13;;;;;;;-141.97;97.61;47818.94;5035004;28;20559;-89
2023/04/05 01:04:59;;;;;;;7.80;4.20;;;;;;;-141.97;97.47;47845.84;5013982;28;20665;-88
2023/04/05 01:07:41;;;;;;;7.87;4.80;;;;;;;-141.97;97.89;47751.66;5006989;28;20446;-88
2023/04/05 01:10:12;;;;;;;11.10;6.40;;;;;;;-141.97;98.33;47674.78;5013351;28;20418;-88
2023/04/05 01:12:38;;;;;;;8.83;4.63;;;;;;;-141.97;98.09;47786.25;5012557;28;20402;-90
2023/04/05 01:15:03;;;;;;;11.63;6.50;;;;;;;-141.97;98.43;47818.94;4995930;28;20438;-88
2023/04/05 01:17:35;;;;;;;9.13;5.10;;;;;;;-141.97;98.46;47797.78;4995588;28;20306;-89
2023/04/05 01:20:09;;;;;;;11.97;6.40;;;;;;;-141.97;98.13;47815.09;5012296;28;20225;-88
2023/04/05 01:23:05;;;;;;;8.67;4.87;;;;;;;-141.97;97.96;47695.91;4995473;28;20465;-88
2023/04/05 01:25:58;;;;;;;8.50;5.10;;;;;;;-141.97;97.75;47751.66;4995432;28;20398;-89
2023/04/05 01:28:30;;;;;;;6.40;3.70;;;;;;;-141.97;97.24;47755.50;4995553;28;20828;-88
2023/04/05 01:31:24;;;;;;;9.77;5.83;;;;;;;-141.97;97.39;47818.94;5011839;28;20414;-88
2023/04/05 01:33:56;;;;;;;10.87;5.90;;;;;;;-141.97;97.72;47788.19;5012283;28;20409;-88
2023/04/05 01:36:30;;;;;;;11.00;6.23;;;;;;;-141.97;97.29;47765.09;5014042;28;20430;-88
2023/04/05 01:38:58;;;;;;;12.10;6.43;;;;;;;-141.97;96.98;47747.81;4996016;28;20412;-88
2023/04/05 01:41:25;;;;;;;10.33;5.20;;;;;;;-141.97;96.38;47694.00;5022331;28;20428;-88
2023/04/05 01:43:50;;;;;;;10.03;5.83;;;;;;;-141.97;96.62;47792.03;5032012;28;20455;-88
2023/04/05 01:46:15;;;;;;;10.57;5.80;;;;;;;-141.97;97.05;47888.13;5033187;28;20401;-89
2023/04/05 01:48:41;;;;;;;9.33;5.77;;;;;;;-141.97;97.54;47765.09;5032536;28;20201;-88
2023/04/05 01:51:06;;;;;;;9.87;5.40;;;;;;;-141.97;97.93;47672.84;5032732;28;20162;-89
2023/04/05 01:53:31;;;;;;;9.53;5.53;;;;;;;-141.97;97.81;47772.78;5032986;28;20159;-88
2023/04/05 01:56:00;;;;;;;10.53;5.90;;;;;;;-141.97;97.83;47786.25;5031417;28;20166;-89
2023/04/05 01:58:26;;;;;;;7.07;4.03;;;;;;;-141.97;97.75;47893.91;5031934;28;20166;-89
2023/04/05 02:00:55;;;;;;;10.17;5.60;;;;;;;-141.97;97.26;47790.09;5032188;28;20496;-89
2023/04/05 02:03:22;;;;;;;8.63;5.03;;;;;;;-141.97;96.92;47872.75;5032179;28;20194;-89
2023/04/05 02:05:47;;;;;;;10.03;5.43;;;;;;;-141.97;96.23;47753.56;5048934;28;20401;-88
2023/04/05 02:08:13;;;;;;;9.53;5.30;;;;;;;-141.97;96.54;47780.47;5055623;28;20429;-89
2023/04/05 02:10:39;;;;;;;9.20;4.80;;;;;;;-141.97;96.00;47792.03;5048475;28;20207;-89
2023/04/05 02:13:05;;;;;;;9.13;5.00;;;;;;;-141.97;96.20;47842.00;5035552;28;20243;-89
2023/04/05 02:15:32;;;;;;;7.03;4.47;;;;;;;-141.97;95.78;47853.53;5033563;28;20469;-89
2023/04/05 02:18:00;;;;;;;7.87;4.33;;;;;;;-141.97;96.00;47778.56;5031339;28;20224;-88
2023/04/05 02:20:27;;;;;;;8.83;5.43;;;;;;;-141.97;95.75;47761.25;5035205;28;20421;-88
2023/04/05 02:22:53;;;;;;;8.63;5.03;;;;;;;-141.97;95.72;47861.22;5045943;28;20452;-89
2023/04/05 02:25:19;;;;;;;7.43;4.70;;;;;;;-141.97;95.96;47647.84;5033071;28;20405;-88
2023/04/05 02:27:45;;;;;;;8.77;4.63;;;;;;;-141.97;95.63;47780.47;5031433;28;20173;-89
2023/04/05 02:30:12;;;;;;;8.23;4.87;;;;;;;-141.97;95.77;47720.91;5032512;28;20240;-89
2023/04/05 02:32:38;;;;;;;9.53;5.80;;;;;;;-141.97;96.02;47765.09;5032542;28;20241;-89
2023/04/05 02:35:04;;;;;;;9.30;4.70;;;;;;;-141.97;96.27;47757.41;5032635;28;20947;-89
2023/04/05 02:37:30;;;;;;;9.77;5.57;;;;;;;-141.97;96.45;47817.00;5031392;28;20178;-89
2023/04/05 02:39:55;;;;;;;12.10;6.37;;;;;;;-141.97;96.44;47720.91;5032419;28;20630;-89
2023/04/05 02:42:21;;;;;;;9.80;4.80;;;;;;;-141.97;96.74;47878.53;5030899;28;20255;-89
2023/04/05 02:44:46;;;;;;;10.20;5.77;;;;;;;-141.97;96.91;47711.28;5031197;28;20169;-89
2023/04/05 02:47:11;;;;;;;11.53;6.30;;;;;;;-141.97;96.78;47865.06;5032668;28;20170;-89
2023/04/05 02:49:37;;;;;;;12.00;6.50;;;;;;;-141.97;96.89;47811.25;5034174;28;20189;-89
2023/04/05 02:52:02;;;;;;;11.73;6.00;;;;;;;-141.97;96.22;47701.69;5035755;28;20174;-89
2023/04/05 02:54:28;;;;;;;11.67;5.80;;;;;;;-141.97;96.70;47718.97;5042863;28;20182;-89
2023/04/05 02:56:56;;;;;;;10.20;5.30;;;;;;;-141.97;96.10;47711.28;5049542;28;20173;-89
2023/04/05 02:59:22;;;;;;;12.30;6.50;;;;;;;-141.97;95.95;47797.78;5034166;28;20162;-89
2023/04/05 03:01:47;;;;;;;10.97;6.40;;;;;;;-141.97;96.15;47684.38;5035741;28;20739;-89
2023/04/05 03:04:12;;;;;;;12.43;6.43;;;;;;;-141.97;96.22;47707.44;5042388;28;20239;-89
2023/04/05 03:06:38;;;;;;;11.73;6.30;;;;;;;-141.97;96.05;47655.53;5041925;28;20569;-89
2023/04/05 03:09:03;;;;;;;11.00;5.97;;;;;;;-141.97;96.17;47767.03;5037714;28;20166;-89
2023/04/05 03:11:30;;;;;;;10.00;5.50;;;;;;;-141.97;95.90;47726.66;5037473;28;20244;-89
2023/04/05 03:13:55;;;;;;;10.77;6.00;;;;;;;-141.97;95.85;47740.13;5037043;28;20158;-90
2023/04/05 03:16:21;;;;;;;6.80;3.83;;;;;;;-141.97;95.38;47674.78;5035443;28;21023;-89
2023/04/05 03:18:48;;;;;;;9.20;5.30;;;;;;;-141.97;95.19;47832.38;5036748;28;20161;-89
2023/04/05 03:21:16;;;;;;;11.00;5.60;;;;;;;-141.97;95.54;47711.28;5036785;28;20204;-88
2023/04/05 03:23:42;;;;;;;13.47;5.93;;;;;;;-141.97;94.75;47855.44;5035843;28;20453;-88
2023/04/05 03:26:09;;;;;;;9.27;4.97;;;;;;;-141.97;94.48;47761.25;5035197;28;20408;-87
2023/04/05 03:28:34;;;;;;;10.47;6.17;;;;;;;-141.97;95.22;47795.88;5036173;28;20168;-88
2023/04/05 03:31:00;;;;;;;10.50;5.30;;;;;;;-141.97;94.87;47757.41;5034633;28;20419;-88
2023/04/05 03:33:25;;;;;;;10.43;4.83;;;;;;;-141.97;95.20;47765.09;5035205;28;20170;-89
2023/04/05 03:35:50;;;;;;;12.30;6.03;;;;;;;-141.97;95.04;47722.81;5036110;28;20541;-89
2023/04/05 03:38:16;;;;;;;8.57;4.67;;;;;;;-141.97;94.75;47692.06;5036355;28;20239;-89
2023/04/05 03:40:42;;;;;;;13.40;6.77;;;;;;;-141.97;94.53;47732.44;5035210;28;20241;-89
2023/04/05 03:43:07;;;;;;;11.80;6.33;;;;;;;-141.97;94.38;47592.13;5034293;28;20190;-89
2023/04/05 03:45:33;;;;;;;10.47;6.07;;;;;;;-141.97;94.75;47761.25;5035652;28;20216;-88
2023/04/05 03:47:58;;;;;;;10.60;5.47;;;;;;;-141.97;94.33;47851.59;5035609;28;20170;-89
2023/04/05 03:50:28;;;;;;;9.77;5.77;;;;;;;-141.97;93.85;47757.41;5034295;28;20640;-89
2023/04/05 03:52:53;;;;;;;11.97;6.37;;;;;;;-141.97;94.21;47680.53;5035955;28;20167;-89
2023/04/05 03:55:19;;;;;;;10.17;6.07;;;;;;;-141.97;93.92;47849.69;5034161;28;20421;-89
2023/04/05 03:57:44;;;;;;;9.13;5.37;;;;;;;-141.97;94.16;47866.97;5035845;28;20166;-89
2023/04/05 04:00:13;;;;;;;11.17;6.20;;;;;;;-141.97;94.50;47786.25;5035445;28;20590;-88
2023/04/05 04:02:48;;;;;;;10.63;5.57;;;;;;;-141.97;93.94;47803.56;5035385;28;20190;-88
2023/04/05 04:05:15;;;;;;;10.33;5.77;;;;;;;-141.97;93.57;47788.19;5035326;28;20425;-88
2023/04/05 04:07:42;;;;;;;12.47;6.73;;;;;;;-141.97;94.14;47699.75;5035399;28;20404;-88
2023/04/05 04:10:09;;;;;;;10.93;6.40;;;;;;;-141.97;94.29;47732.44;5050791;28;20421;-89
2023/04/05 04:12:35;;;;;;;10.00;5.13;;;;;;;-141.97;94.18;47703.59;5033572;28;20409;-88
2023/04/05 04:15:00;;;;;;;8.63;4.90;;;;;;;-141.97;93.88;47768.94;5034809;28;20922;-89
2023/04/05 04:17:31;;;;;;;12.10;6.37;;;;;;;-141.97;94.16;47818.94;5034432;28;20225;-88
2023/04/05 04:19:57;;;;;;;11.00;5.47;;;;;;;-141.97;94.12;47784.34;5035112;28;20169;-88
2023/04/05 04:22:25;;;;;;;9.93;4.83;;;;;;;-141.97;94.48;47776.63;5033604;28;20455;-88
2023/04/05 04:24:54;;;;;;;11.53;5.03;;;;;;;-141.97;94.34;47695.91;5033258;28;21014;-88
2023/04/05 04:27:19;;;;;;;10.83;6.00;;;;;;;-141.97;94.41;47761.25;5031582;28;20427;-88
2023/04/05 04:29:48;;;;;;;13.03;6.67;;;;;;;-141.97;94.18;47865.06;5019200;28;20909;-88
2023/04/05 04:32:15;;;;;;;10.37;5.70;;;;;;;-141.97;94.14;47807.41;5032786;28;20181;-88
2023/04/05 04:34:43;;;;;;;11.83;6.40;;;;;;;-141.97;93.90;47780.47;5034337;28;20950;-88
2023/04/05 04:37:21;;;;;;;10.03;6.00;;;;;;;-141.97;93.90;47759.34;5034387;28;20397;-89
2023/04/05 04:39:47;;;;;;;9.57;4.70;;;;;;;-141.97;93.65;47768.94;5032633;28;20511;-88
2023/04/05 04:42:18;;;;;;;9.83;5.47;;;;;;;-141.97;93.31;47676.69;5032909;28;20515;-88
2023/04/05 04:44:44;;;;;;;9.73;5.33;;;;;;;-141.97;93.04;47786.25;5034313;28;20412;-88
2023/04/05 04:47:11;;;;;;;12.43;6.47;;;;;;;-141.97;92.76;47793.94;5034904;28;20413;-88
2023/04/05 04:49:37;;;;;;;10.50;5.90;;;;;;;-141.97;92.53;47734.34;5034319;28;20171;-89
2023/04/05 04:52:03;;;;;;;11.67;5.57;;;;;;;-141.97;92.61;47842.00;5034213;28;20470;-89
2023/04/05 04:54:28;;;;;;;8.57;5.20;;;;;;;-141.97;92.11;47740.13;5032529;28;20216;-89
2023/04/05 04:56:53;;;;;;;10.63;5.27;;;;;;;-141.97;92.20;47776.63;5034509;28;20174;-89
2023/04/05 04:59:19;;;;;;;7.53;4.90;;;;;;;-141.97;91.98;47855.44;5035634;28;20205;-89
2023/04/05 05:01:44;;;;;;;8.60;4.97;;;;;;;-141.97;91.70;47738.19;5042980;28;20189;-87
2023/04/05 05:04:10;;;;;;;9.73;5.87;;;;;;;-141.97;91.54;47795.88;5056401;28;20204;-87
2023/04/05 05:06:36;;;;;;;8.40;4.80;;;;;;;-141.97;91.35;47851.59;5040550;28;20543;-87
2023/04/05 05:09:01;;;;;;;9.40;5.20;;;;;;;-141.97;91.14;47763.19;5044465;28;20154;-88
2023/04/05 05:11:27;;;;;;;6.90;4.60;;;;;;;-141.97;90.79;47790.09;5045975;28;20396;-89
2023/04/05 05:13:53;;;;;;;6.00;3.93;;;;;;;-141.97;90.67;47845.84;5049832;28;20230;-88
2023/04/05 05:16:20;;;;;;;9.70;4.77;;;;;;;-141.97;90.52;47767.03;5056406;28;20234;-88
2023/04/05 05:18:47;;;;;;;10.33;5.93;;;;;;;-141.97;90.58;47676.69;5043731;28;20197;-88
2023/04/05 05:21:12;;;;;;;12.17;5.80;;;;;;;-141.97;90.35;47828.53;5034097;28;20498;-88
2023/04/05 05:23:38;;;;;;;8.33;4.77;;;;;;;-141.97;90.58;47734.34;5042694;28;20452;-89
2023/04/05 05:26:03;;;;;;;10.20;5.23;;;;;;;-141.97;90.83;47688.22;5032935;28;20180;-88
2023/04/05 05:28:29;;;;;;;15.30;8.03;;;;;;;-141.97;89.77;47805.47;5032948;28;20257;-89
2023/04/05 05:30:54;;;;;;;9.20;5.80;;;;;;;-141.97;89.12;47828.53;5033905;28;20178;-89
2023/04/05 05:33:20;;;;;;;6.60;4.20;;;;;;;-141.97;89.21;47793.94;5034365;28;20299;-90
2023/04/05 05:35:50;;;;;;;5.83;3.70;;;;;;;-141.97;89.03;47699.75;5033600;28;20166;-90
2023/04/05 05:38:16;;;;;;;9.60;5.23;;;;;;;-141.97;89.10;47868.91;5034954;28;20538;-90
2023/04/05 05:40:41;;;;;;;7.10;4.60;;;;;;;-141.97;88.96;47828.53;5053686;28;20492;-87
2023/04/05 05:43:07;;;;;;;5.27;3.60;;;;;;;-141.97;88.85;47699.75;5034244;28;20914;-89
2023/04/05 05:45:33;;;;;;;5.97;3.60;;;;;;;-141.97;87.56;47843.91;5033437;28;20173;-90
2023/04/05 05:47:58;;;;;;;6.53;3.77;;;;;;;-141.97;87.67;47738.19;5020644;28;20229;-90
2023/04/05 05:50:23;;;;;;;7.23;4.20;;;;;;;-141.97;87.57;47845.84;5033967;28;20716;-90
2023/04/05 05:52:49;;;;;;;6.03;3.93;;;;;;;-141.97;87.66;47874.69;5034719;28;20528;-91
2023/04/05 05:55:15;;;;;;;7.53;4.57;;;;;;;-141.97;87.09;47722.81;5031778;28;20181;-90
2023/04/05 05:57:40;;;;;;;7.23;4.13;;;;;;;-141.97;87.07;47753.56;5034086;28;20177;-90
2023/04/05 06:00:09;;;;;;;8.60;5.33;;;;;;;-141.97;87.34;47895.81;5034018;28;20197;-89
2023/04/05 06:02:35;;;;;;;6.57;4.47;;;;;;;-141.97;87.48;47870.81;5034996;28;20189;-89
2023/04/05 06:05:01;;;;;;;7.13;4.23;;;;;;;-141.97;87.00;47763.19;5035324;28;20401;-89
2023/04/05 06:07:27;;;;;;;17.67;8.57;;;;;;;-141.97;87.04;47784.34;5033758;28;20158;-89
2023/04/05 06:09:53;;;;;;;14.87;7.03;;;;;;;-141.97;86.62;47834.31;5031742;28;20413;-88
2023/04/05 06:12:21;;;;;;;21.33;9.27;;;;;;;-141.97;87.29;47695.91;5033113;28;20546;-90
2023/04/05 06:14:47;;;;;;;9.73;5.60;;;;;;;-141.97;86.66;47861.22;5033375;28;20617;-90
2023/04/05 06:17:12;;;;;;;11.10;6.47;;;;;;;-141.97;85.76;47745.88;5033147;28;21130;-89
2023/04/05 06:19:38;;;;;;;6.27;3.80;;;;;;;-141.97;85.72;47684.38;5032085;28;20170;-89
2023/04/05 06:22:03;;;;;;;6.13;3.80;;;;;;;-141.97;85.14;47784.34;5031790;28;20272;-89
2023/04/05 06:24:30;;;;;;;5.57;3.50;;;;;;;-141.97;84.86;47782.41;5033549;28;20174;-89
2023/04/05 06:26:57;;;;;;;12.60;5.03;;;;;;;-141.97;84.79;47751.66;5035915;28;20170;-89
2023/04/05 06:29:23;;;;;;;5.93;3.70;;;;;;;-141.97;84.30;47718.97;5033752;28;20519;-89
2023/04/05 06:31:48;;;;;;;10.53;5.90;;;;;;;-141.97;84.13;47747.81;5033128;28;20425;-89
2023/04/05 06:34:14;;;;;;;7.50;3.90;;;;;;;-141.97;83.97;47615.19;5033496;28;20249;-89
2023/04/05 06:36:39;;;;;;;7.93;4.80;;;;;;;-141.97;84.69;47670.91;5031516;28;20254;-90
2023/04/05 06:39:05;;;;;;;4.73;3.00;;;;;;;-141.97;83.68;47834.31;5032405;28;20627;-89
2023/04/05 06:41:30;;;;;;;4.90;3.03;;;;;;;-141.97;83.42;47732.44;5032266;28;20193;-90
2023/04/05 06:43:57;;;;;;;6.37;4.00;;;;;;;-141.97;84.20;47859.28;5031341;28;20217;-89
2023/04/05 06:46:23;;;;;;;6.23;4.17;;;;;;;-141.97;83.47;47703.59;5031514;28;20409;-89
2023/04/05 06:48:49;;;;;;;7.27;3.80;;;;;;;-141.97;83.68;47842.00;5031334;28;20239;-89
2023/04/05 06:51:14;;;;;;;6.60;3.77;;;;;;;-141.97;82.30;47665.16;5030636;28;20277;-89
2023/04/05 06:53:40;;;;;;;5.97;3.07;;;;;;;-141.97;82.21;47845.84;5032388;28;20538;-89
2023/04/05 06:56:06;;;;;;;5.43;3.10;;;;;;;-141.97;82.35;47784.34;5031352;28;20229;-89
2023/04/05 06:58:32;;;;;;;4.77;3.50;;;;;;;-141.97;82.10;47882.38;5032970;28;20522;-91
2023/04/05 07:00:59;;;;;;;5.87;3.70;;;;;;;-141.97;82.23;47793.94;5031057;28;20429;-89
2023/04/05 07:03:25;;;;;;;5.93;4.03;;;;;;;-141.97;82.62;47682.47;5017604;28;20224;-89
2023/04/05 07:05:58;;;;;;;8.27;4.53;;;;;;;-141.97;82.38;47811.25;5031591;28;20409;-89
2023/04/05 07:08:25;;;;;;;8.07;5.07;;;;;;;-141.97;82.90;47765.09;5037892;28;20269;-90
2023/04/05 07:10:51;;;;;;;10.63;5.47;;;;;;;-141.97;82.43;47692.06;5034653;28;20496;-90
2023/04/05 07:13:18;;;;;;;5.10;3.43;;;;;;;-141.97;81.94;47724.75;5020429;28;20479;-90
2023/04/05 07:15:44;;;;;;;6.70;3.73;;;;;;;-141.97;81.91;47842.00;5032434;28;20397;-91
2023/04/05 07:18:10;;;;;;;3.90;3.10;;;;;;;-141.97;81.80;47767.03;5032678;28;20417;-89
2023/04/05 07:20:36;;;;;;;6.30;4.03;;;;;;;-141.97;82.09;47740.13;5031002;28;20447;-91
2023/04/05 07:23:01;;;;;;;3.27;2.57;;;;;;;-141.97;81.22;47765.09;5032104;28;20222;-88
2023/04/05 07:25:26;;;;;;;5.17;2.60;;;;;;;-141.97;81.17;47803.56;5032322;28;20245;-89
2023/04/05 07:27:52;;;;;;;4.80;3.63;;;;;;;-141.97;81.51;47851.59;5032071;28;20170;-91
2023/04/05 07:30:18;;;;;;;4.97;3.53;;;;;;;-141.97;81.51;47784.34;5030633;28;20268;-90
2023/04/05 07:32:44;;;;;;;6.13;3.47;;;;;;;-141.97;81.41;47851.59;5030741;28;20204;-89
2023/04/05 07:35:09;;;;;;;6.60;3.70;;;;;;;-141.97;82.61;47663.22;5030975;28;20166;-90
2023/04/05 07:37:36;;;;;;;7.53;4.90;;;;;;;-141.97;81.62;47674.78;5031165;28;20557;-90
2023/04/05 07:40:02;;;;;;;5.30;3.80;;;;;;;-141.97;81.28;47638.25;5035080;28;20162;-90
2023/04/05 07:42:27;;;;;;;5.50;3.47;;;;;;;-141.97;81.49;47707.44;5040815;28;20440;-90
2023/04/05 07:44:53;;;;;;;6.27;3.40;;;;;;;-141.97;79.67;47855.44;5044017;28;20408;-90
2023/04/05 07:47:18;;;;;;;6.87;4.07;;;;;;;-141.97;79.67;47638.25;5045885;28;20613;-90
2023/04/05 07:49:44;;;;;;;18.03;7.97;;;;;;;-141.97;81.26;47849.69;5034691;28;20684;-90
2023/04/05 07:52:09;;;;;;;12.23;5.20;;;;;;;-141.97;80.91;47665.16;5034567;28;20626;-91
2023/04/05 07:54:38;;;;;;;9.20;5.37;;;;;;;-141.97;79.72;47661.31;5034925;28;20165;-91
2023/04/05 07:57:04;;;;;;;12.77;5.70;;;;;;;-141.97;80.16;47776.63;5035838;28;20170;-91
2023/04/05 07:59:29;;;;;;;9.63;4.67;;;;;;;-141.97;80.43;47888.13;5034165;28;20336;-92
2023/04/05 08:01:55;;;;;;;5.47;3.17;;;;;;;-141.97;79.32;47717.06;5035333;28;20167;-91
2023/04/05 08:04:21;;;;;;;8.20;4.73;;;;;;;-141.97;80.07;47849.69;5034380;28;20629;-92
2023/04/05 08:06:46;;;;;;;4.70;3.23;;;;;;;-141.97;79.54;47761.25;5035329;28;20476;-91
2023/04/05 08:09:12;;;;;;;6.10;3.20;;;;;;;-141.97;79.67;47751.66;5033884;28;20454;-92
2023/04/05 08:11:37;;;;;;;6.10;4.00;;;;;;;-141.97;79.35;47753.56;5035137;28;20177;-91
2023/04/05 08:14:03;;;;;;;3.83;2.80;;;;;;;-141.97;77.80;47807.41;5034744;28;20245;-91
2023/04/05 08:16:29;;;;;;;6.07;3.80;;;;;;;-141.97;78.99;47745.88;5035852;28;20701;-92
2023/04/05 08:18:54;;;;;;;9.53;5.30;;;;;;;-141.97;78.54;47715.13;5034564;28;20177;-91
2023/04/05 08:21:21;;;;;;;8.30;4.30;;;;;;;-141.97;78.52;47699.75;5049960;28;20239;-91
2023/04/05 08:23:46;;;;;;;6.97;4.13;;;;;;;-141.97;78.89;47732.44;5057212;28;20198;-92
2023/04/05 08:26:12;;;;;;;8.13;5.00;;;;;;;-141.97;78.26;47730.50;5058178;28;20181;-91
2023/04/05 08:28:37;;;;;;;5.23;3.43;;;;;;;-141.97;77.77;47743.97;5028823;28;20233;-88
2023/04/05 08:31:02;;;;;;;6.40;3.43;;;;;;;-141.97;77.50;47778.56;5049215;28;20206;-91
2023/04/05 08:33:29;;;;;;;10.30;4.80;;;;;;;-141.97;78.02;47688.22;5035144;28;20170;-92
2023/04/05 08:35:56;;;;;;;6.30;4.00;;;;;;;-141.97;77.87;47865.06;5035084;28;20158;-89
2023/04/05 08:38:22;;;;;;;4.10;2.87;;;;;;;-141.97;77.76;47669.00;5033691;28;20266;-91
2023/04/05 08:40:48;;;;;;;4.13;3.07;;;;;;;-141.97;77.38;47822.78;5033909;28;20170;-92
2023/04/05 08:43:35;;;;;;;6.30;3.80;;;;;;;-141.97;78.72;47742.03;5033699;28;20193;-92
2023/04/05 08:46:01;;;;;;;4.70;3.00;;;;;;;-141.97;78.60;47711.28;5034563;28;20201;-91
2023/04/05 08:48:30;;;;;;;5.83;3.63;;;;;;;-141.97;78.92;47795.88;5033757;28;20246;-91
2023/04/05 08:50:56;;;;;;;3.57;2.63;;;;;;;-141.97;77.87;47711.28;5034451;28;20172;-90
2023/04/05 08:53:22;;;;;;;6.83;4.50;;;;;;;-141.97;78.02;47638.25;5032344;28;20166;-91
2023/04/05 08:55:54;;;;;;;4.53;3.13;;;;;;;-141.97;78.22;47772.78;5033304;28;20597;-91
2023/04/05 08:58:24;;;;;;;4.37;2.53;;;;;;;-141.97;77.32;47770.88;5034622;28;20170;-90
2023/04/05 09:00:51;;;;;;;5.17;3.70;;;;;;;-141.97;78.33;47793.94;5034889;28;20158;-90
2023/04/05 09:03:28;;;;;;;8.97;5.47;;;;;;;-141.97;77.73;47770.88;5032989;28;20281;-86
2023/04/05 09:05:57;;;;;;;16.73;8.90;;;;;;;-141.97;77.45;47711.28;5034342;28;20673;-89
2023/04/05 09:08:23;;;;;;;6.63;4.43;;;;;;;-141.97;76.61;47776.63;5041632;28;20260;-88
2023/04/05 09:10:52;;;;;;;6.43;3.67;;;;;;;-141.97;75.67;47765.09;5039031;28;20192;-89
2023/04/05 09:13:18;;;;;;;4.67;3.27;;;;;;;-141.97;75.85;47703.59;5032889;28;20177;-90
2023/04/05 09:15:45;;;;;;;4.77;3.40;;;;;;;-141.97;76.23;47818.94;5032744;28;20170;-89
2023/04/05 09:18:10;;;;;;;6.80;4.60;;;;;;;-141.97;76.20;47884.28;5032938;28;20539;-90
2023/04/05 09:20:36;;;;;;;4.93;3.30;;;;;;;-141.97;76.60;47649.78;5033175;28;20166;-90
2023/04/05 09:23:01;;;;;;;5.53;3.40;;;;;;;-141.97;76.53;47709.38;5034081;28;20302;-90
2023/04/05 09:25:34;;;;;;;20.07;7.83;;;;;;;-141.97;75.80;47807.41;5032686;28;20167;-91
2023/04/05 09:28:02;;;;;;;13.83;6.30;;;;;;;-141.97;75.77;47772.78;5023504;28;20166;-89
2023/04/05 09:30:27;;;;;;;5.37;3.40;;;;;;;-141.97;75.64;47743.97;5031135;28;20543;-90
2023/04/05 09:32:54;;;;;;;4.33;3.40;;;;;;;-141.97;75.88;47784.34;5032566;28;20165;-90
2023/04/05 09:35:26;;;;;;;9.27;4.70;;;;;;;-141.97;75.59;47743.97;5032027;28;20166;-90
2023/04/05 09:37:53;;;;;;;8.63;5.40;;;;;;;-141.97;75.43;47824.69;5033868;28;20193;-90
2023/04/05 09:40:19;;;;;;;7.07;4.87;;;;;;;-141.97;75.88;47876.59;5032237;28;20170;-90
2023/04/05 09:42:45;;;;;;;11.43;5.93;;;;;;;-141.97;75.73;47734.34;5033305;28;20204;-89
2023/04/05 09:45:11;;;;;;;5.43;3.40;;;;;;;-141.97;76.11;47757.41;5037386;28;20154;-90
2023/04/05 09:47:37;;;;;;;10.40;5.80;;;;;;;-141.97;76.47;47757.41;5032513;28;20165;-91
2023/04/05 09:50:12;;;;;;;6.30;3.83;;;;;;;-141.97;76.13;47657.47;5032033;28;20257;-91
2023/04/05 09:52:38;;;;;;;5.27;3.40;;;;;;;-141.97;75.70;47847.75;5033173;28;20161;-90
2023/04/05 09:55:06;;;;;;;4.37;2.63;;;;;;;-141.97;75.16;47761.25;5036648;28;20228;-91
2023/04/05 09:57:37;;;;;;;5.43;3.57;;;;;;;-141.97;75.36;47740.13;5033249;28;20185;-91
2023/04/05 10:00:05;;;;;;;4.27;3.10;;;;;;;-141.97;74.97;47670.91;5048728;28;20174;-92
2023/04/05 10:02:38;;;;;;;4.93;2.97;;;;;;;-141.97;74.29;47659.38;5034219;28;20211;-92
2023/04/05 10:05:12;;;;;;;10.23;5.50;;;;;;;-141.97;73.40;47780.47;5032231;28;20162;-92
2023/04/05 10:07:39;;;;;;;3.93;2.93;;;;;;;-141.97;74.21;47799.72;5032745;28;20162;-92
2023/04/05 10:10:05;;;;;;;7.17;3.90;;;;;;;-141.97;75.14;47732.44;5035486;28;20246;-91
2023/04/05 10:12:32;;;;;;;3.80;2.83;;;;;;;-141.97;75.37;47886.22;5044304;28;20162;-91
2023/04/05 10:14:58;;;;;;;8.10;4.50;;;;;;;-141.97;75.32;47859.28;5034373;28;20683;-91
2023/04/05 10:17:33;;;;;;;5.77;3.47;;;;;;;-141.97;75.20;47824.69;5033256;28;20229;-91
2023/04/05 10:20:07;;;;;;;11.03;7.33;;;;;;;-141.97;76.26;47619.03;5033494;28;20260;-91
2023/04/05 10:22:58;;;;;;;6.70;3.83;;;;;;;-141.97;75.33;47653.63;5036788;28;20686;-92
2023/04/05 10:25:46;;;;;;;7.73;4.00;;;;;;;-141.97;74.49;47799.72;5041863;28;20158;-90
2023/04/05 10:28:19;;;;;;;7.93;5.17;;;;;;;-141.97;75.90;47793.94;5040105;28;20174;-92
2023/04/05 10:30:50;;;;;;;6.80;4.47;;;;;;;-141.97;75.79;47790.09;5034555;28;20169;-91
2023/04/05 10:33:20;;;;;;;5.17;3.43;;;;;;;-141.97;74.20;47755.50;5033496;28;20169;-91
2023/04/05 10:36:05;;;;;;;4.83;2.73;;;;;;;-141.97;74.58;47759.34;5035025;28;20153;-91
2023/04/05 10:38:41;;;;;;;3.80;2.90;;;;;;;-141.97;74.83;47797.78;5035735;28;20185;-91
2023/04/05 10:41:13;;;;;;;4.20;3.30;;;;;;;-141.97;75.78;47780.47;5045141;28;20184;-90
2023/04/05 10:43:40;;;;;;;5.13;3.57;;;;;;;-141.97;75.63;47763.19;5044416;28;20186;-91
2023/04/05 10:46:09;;;;;;;5.93;3.70;;;;;;;-141.97;74.32;47699.75;5039071;28;20162;-90
2023/04/05 10:49:00;;;;;;;6.30;4.63;;;;;;;-141.97;75.08;47778.56;5032749;28;20184;-91
2023/04/05 10:51:26;;;;;;;4.73;3.00;;;;;;;-141.97;74.57;47772.78;5035095;28;20261;-91
2023/04/05 10:53:53;;;;;;;12.97;6.93;;;;;;;-141.97;75.07;47726.66;5031517;28;20169;-91
2023/04/05 10:56:20;;;;;;;5.03;3.73;;;;;;;-141.97;75.49;47676.69;5037170;28;20247;-93
2023/04/05 10:58:47;;;;;;;3.97;3.00;;;;;;;-141.97;75.89;47780.47;5035232;28;20161;-91
2023/04/05 11:01:16;;;;;;;4.57;3.37;;;;;;;-141.97;75.84;47815.09;5031882;28;20169;-91
2023/04/05 11:03:41;;;;;;;8.07;4.50;;;;;;;-141.97;75.01;47788.19;5031847;28;20661;-91
2023/04/05 11:06:28;;;;;;;5.60;3.77;;;;;;;-141.97;74.53;47782.41;5031308;28;20165;-93
2023/04/05 11:09:09;;;;;;;9.17;6.13;;;;;;;-141.97;74.39;47790.09;5041526;28;20173;-90
2023/04/05 11:11:40;;;;;;;15.10;8.67;;;;;;;-141.97;73.67;47782.41;5035273;28;20204;-92
2023/04/05 11:14:33;;;;;;;6.90;4.63;;;;;;;-141.97;74.14;47695.91;5032415;28;20173;-92
2023/04/05 11:16:58;;;;;;;5.70;3.57;;;;;;;-141.97;74.49;47751.66;5036991;28;20225;-91